Terminal Aerodrome Forecast
Issued by NWS Brownsville, TX

Home | Current Version | Previous Version | Text Only | Print | Product List | Glossary On
Versions: 1 2 3 4 5 6 7 8 9 10 11 12 13 14 15 16 17 18 19
000
FTUS44 KBRO 071731
TAFHRL
TAF
KHRL 071731Z 0718/0818 16019G25KT P6SM SCT045
     FM080400 15014G20KT P6SM SCT025
     FM081000 15011KT P6SM SCT040
      TEMPO 0810/0813 BKN040
     FM081300 16019G25KT P6SM BKN035
      TEMPO 0813/0816 BKN025
     FM081700 16020G26KT P6SM SCT040=

USA.gov is the U.S. government's official web portal to all federal, state and local government web resources and services.